St Lucie County International Airport
KFPR : now visible

Airfield :











YOU CAN JOIN US ON...

 
LOGIN :

Register | Disclaimer

   EN    FR    IT 

 









Legend :    VFR   Marginal VFR   IFR   Intensive IFR   Very Intensive IFR
Visi :
Ceiling :
>= 8 km
>= 3000ft
5 to 8 km
1000 to 3000 ft
1500m to 5 km
500 to 1000 ft
800 to 1500m
200 to 500 ft
< 800m
< 200 ft
Symbols :   Thunderstorms  Fog  Heavy snow  Heavy precipitations  Wind > 20 kt







- Airport Elevation : 24 ft
- IATA code : FPR


KFPR - St Lucie County International

CURRENT METAR :
  • 210553Z AUTO 00000KT 10SM CLR 24/23 A3006 RMK AO2 SLP179 T02440228 10289 20239 58007

EXPIRED METARs :
  • 210453Z AUTO 00000KT 10SM CLR 24/23 A3007 RMK AO2 SLP183 T02440228 403170228
  • 210353Z AUTO 00000KT 10SM CLR 24/23 A3008 RMK AO2 LTG DSNT SE SLP185 T02440228

TAF KFPR
Valid from the 21 at 06:00 until the 22 at 06:00 UTC


210535Z 2106/2206 13006KT P6SM VCSH SCT025 SCT250
FM211600 12009KT P6SM VCTS SCT030CB SCT080
FM212000 12010KT P6SM VCSH SCT030 SCT120
FM220100 13006KT P6SM FEW040 SCT250
KZMA FIR / North America



MET'MAP, your aeronautical weather chart ! - Copyright ORBIFLY December 2007 - Disclaimer

ORBIFLY MET'MAP TEAM :

Programming & Development : Alexandra Zaïnal
Concept & Development : Baudouin d'Aumeries
Co-Development & Prog : Marc-Olivier Méhu
Technical & hardware support : Manuel Goepfert

Contact : metmap@orbifly.com




SOURCES & CREDITS :

   NOAA       Earth
Advisory